Happy Valentine's Day! 

Flight Track Log - Related Links

Times and Time Zones

All times are in EDT time to prevent confusion due to time zone crossing. See the DAL1861 flight status page for this flight to view local times or setup timezone preferences in your user account.


Time Position Orientation Groundspeed Altitude Reporting Facility
EDT Latitude Longitude Course Direction KTS MPH feet Rate Location/Type
Fri 02:53:34 PM 33.6500 -84.4667 287° West 165 190 2,700  Level Atlanta TRACON
Fri 02:54:34 PM 33.6667 -84.5333 284° West 224 258 4,300 2,400 Climbing Atlanta TRACON
Fri 02:55:34 PM 33.6833 -84.6167 274° West 266 306 7,500 2,484 Climbing Atlanta TRACON
Fri 02:57:40 PM 33.6936 -84.8203 263° West 295 339 12,000 2,355 Climbing Atlanta Center
Fri 02:58:40 PM 33.6825 -84.9350 262° West 336 387 14,800 2,450 Climbing Atlanta Center
Fri 02:59:40 PM 33.6692 -85.0422 262° West 352 405 16,900 2,150 Climbing Atlanta Center
Fri 03:00:40 PM 33.6556 -85.1644 267° West 370 426 19,100 2,100 Climbing Atlanta Center
Fri 03:01:40 PM 33.6500 -85.2914 271° West 375 432 21,100 2,050 Climbing Atlanta Center
Fri 03:02:40 PM 33.6528 -85.4239 271° West 387 445 23,200 1,800 Climbing Atlanta Center
Fri 03:03:40 PM 33.6556 -85.5561 270° West 398 458 24,700 1,500 Climbing Atlanta Center
Fri 03:04:40 PM 33.6558 -85.6958 270° West 409 471 26,200 1,500 Climbing Atlanta Center
Fri 03:05:40 PM 33.6558 -85.8456 272° West 416 479 27,700 1,150 Climbing Atlanta Center
Fri 03:06:40 PM 33.6600 -85.9731 271° West 422 486 28,500 950 Climbing Atlanta Center
Fri 03:07:40 PM 33.6619 -86.1178 271° West 429 494 29,600 1,600 Climbing Atlanta Center
Fri 03:08:40 PM 33.6636 -86.2650 270° West 440 506 31,700 1,800 Climbing Atlanta Center
Fri 03:09:40 PM 33.6631 -86.4050 272° West 434 499 33,200 1,250 Climbing Atlanta Center
Fri 03:10:40 PM 33.6664 -86.5472 270° West 429 494 34,200 1,050 Climbing Atlanta Center
Fri 03:11:40 PM 33.6658 -86.6819 281° West 422 486 35,300 900 Climbing Atlanta Center
Fri 03:12:40 PM 33.6894 -86.8325 285° West 417 480 36,000 350 Climbing Atlanta Center
Fri 03:13:40 PM 33.7197 -86.9683 283° West 417 480 36,000  Level Atlanta Center
Fri 03:15:31 PM 33.7678 -87.2161 286° West 427 491 36,000  Level Memphis Center
Fri 03:16:31 PM 33.8003 -87.3500 284° West 427 491 36,000  Level Memphis Center
Fri 03:17:31 PM 33.8261 -87.4717 283° West 427 491 36,000  Level Memphis Center
Fri 03:18:31 PM 33.8519 -87.6058 284° West 415 478 36,000  Level Memphis Center
Fri 03:19:31 PM 33.8800 -87.7375 282° West 410 472 36,000  Level Memphis Center
Fri 03:20:31 PM 33.9036 -87.8769 285° West 422 486 36,000  Level Memphis Center
Fri 03:21:31 PM 33.9333 -88.0114 282° West 422 486 36,000  Level Memphis Center
Fri 03:22:31 PM 33.9569 -88.1483 283° West 422 486 36,000  Level Memphis Center
Fri 03:23:31 PM 33.9842 -88.2881 283° West 428 493 36,000  Level Memphis Center
Fri 03:24:31 PM 34.0094 -88.4203 283° West 428 493 36,000 -250 Level Memphis Center
Fri 03:25:31 PM 34.0386 -88.5675 283° West 423 487 35,500 -650 Descending Memphis Center
Fri 03:26:31 PM 34.0636 -88.6997 283° West 413 475 34,700 -850 Descending Memphis Center
Fri 03:27:31 PM 34.0836 -88.8072 283° West 413 475 33,800 -850 Descending Memphis Center
Fri 03:28:31 PM 34.1128 -88.9647 283° West 408 470 33,000 -400 Descending Memphis Center
Fri 03:29:31 PM 34.1392 -89.1000 282° West 414 476 33,000  Level Memphis Center
Fri 03:30:31 PM 34.1633 -89.2325 283° West 414 476 33,000  Level Memphis Center
Fri 03:31:31 PM 34.1897 -89.3678 282° West 414 476 33,000  Level Memphis Center
Fri 03:32:31 PM 34.2114 -89.4906 283° West 414 476 33,000  Level Memphis Center
Fri 03:33:31 PM 34.2372 -89.6261 282° West 419 482 33,000  Level Memphis Center
Fri 03:34:31 PM 34.2611 -89.7589 282° West 419 482 33,000 -100 Level Memphis Center
Fri 03:35:31 PM 34.2844 -89.8972 283° West 419 482 32,800 -550 Descending Memphis Center
Fri 03:36:31 PM 34.3122 -90.0478 283° West 419 482 31,900 -950 Descending Memphis Center
Fri 03:37:31 PM 34.3375 -90.1836 281° West 419 482 30,900 -1,000 Descending Memphis Center
Fri 03:38:31 PM 34.3606 -90.3219 282° West 419 482 29,900 -1,000 Descending Memphis Center
Fri 03:39:31 PM 34.3856 -90.4603 283° West 414 476 28,900 -1,050 Descending Memphis Center
Fri 03:40:31 PM 34.4125 -90.5989 284° West 414 476 27,800 -1,050 Descending Memphis Center
Fri 03:41:31 PM 34.4392 -90.7322 285° West 414 476 26,800 -1,000 Descending Memphis Center
Fri 03:42:31 PM 34.4681 -90.8661 282° West 409 471 25,800 -1,050 Descending Memphis Center
Fri 03:43:31 PM 34.4883 -90.9794 284° West 409 471 24,700 -2,950 Descending Memphis Center
Fri 03:44:31 PM 34.5169 -91.1183 286° West 409 471 19,900 -5,050 Descending Memphis Center
Fri 03:45:31 PM 34.5472 -91.2497 282° West 414 476 14,600 -4,800 Descending Memphis Center
Fri 03:46:31 PM 34.5692 -91.3711 281° West 385 443 10,300 -2,350 Descending Memphis Center
Fri 03:47:31 PM 34.5872 -91.4822 278° West 354 407 9,900 -200 Descending Memphis Center
Fri 03:48:31 PM 34.6006 -91.5933 278° West 332 382 9,900  Level Memphis Center
Fri 03:49:31 PM 34.6122 -91.6919 280° West 307 353 9,900 -1,050 Level Memphis Center
Fri 03:50:31 PM 34.6258 -91.7831 288° West 281 323 7,800 -2,050 Descending Memphis Center
Fri 03:51:31 PM 34.6478 -91.8669 306° West 270 311 5,800 -2,050 Descending Memphis Center
Fri 03:52:31 PM 34.6947 -91.9458 310° West 270 311 3,700 -1,800 Descending Memphis Center
Fri 03:53:01 PM 34.7214 -91.9842 305° West 285 328 3,100 -1,500 Descending Memphis Center
Fri 03:53:31 PM 34.7419 -92.0200 302° West 275 316 2,200 -1,082 Descending Memphis Center
Fri 03:54:02 PM 34.7600 -92.0558 287° West 268 308 2,000 -65 Descending Memphis Center
Fri 03:55:03 PM 34.7778 -92.1269 258° West 202 232 2,100 -331 Climbing Memphis Center
Fri 03:56:09 PM 34.7689 -92.1800 224° Southwest 141 162 1,300 -709 Descending Memphis Center
Fri 03:57:10 PM 34.7433 -92.2097 269° West 127 146 600 11,282 Descending Memphis Center
Fri 03:58:31 PM 34.7422 -92.2856 269° West 144 166 28,000 20,296 Climbing Memphis Center

Login

Don't have an account? Register now (free) for customized features, flight alerts, and more!